sensor_id;sensor_type;location;lat;lon;timestamp;P1;durP1;ratioP1;P2;durP2;ratioP2
14945;SDS011;7567;50.916;6.900;2022-10-16T00:01:16;2.60;;;2.40;;
14945;SDS011;7567;50.916;6.900;2022-10-16T00:03:44;2.53;;;2.33;;
14945;SDS011;7567;50.916;6.900;2022-10-16T00:06:11;3.25;;;2.17;;
14945;SDS011;7567;50.916;6.900;2022-10-16T00:08:38;3.45;;;2.53;;
14945;SDS011;7567;50.916;6.900;2022-10-16T00:11:11;2.83;;;1.95;;
14945;SDS011;7567;50.916;6.900;2022-10-16T00:13:38;3.50;;;2.10;;
14945;SDS011;7567;50.916;6.900;2022-10-16T00:16:06;4.85;;;2.53;;
14945;SDS011;7567;50.916;6.900;2022-10-16T00:18:33;2.67;;;2.00;;
14945;SDS011;7567;50.916;6.900;2022-10-16T00:21:03;1.80;;;1.70;;
14945;SDS011;7567;50.916;6.900;2022-10-16T00:23:29;5.13;;;2.40;;
14945;SDS011;7567;50.916;6.900;2022-10-16T00:25:56;2.38;;;2.17;;
14945;SDS011;7567;50.916;6.900;2022-10-16T00:28:23;7.63;;;2.33;;
14945;SDS011;7567;50.916;6.900;2022-10-16T00:30:49;2.10;;;2.00;;
14945;SDS011;7567;50.916;6.900;2022-10-16T00:33:15;1.80;;;1.60;;
14945;SDS011;7567;50.916;6.900;2022-10-16T00:35:41;2.72;;;1.90;;
14945;SDS011;7567;50.916;6.900;2022-10-16T00:38:08;3.13;;;2.22;;
14945;SDS011;7567;50.916;6.900;2022-10-16T00:40:34;3.17;;;2.03;;
14945;SDS011;7567;50.916;6.900;2022-10-16T00:43:00;2.30;;;1.80;;
14945;SDS011;7567;50.916;6.900;2022-10-16T00:45:26;4.10;;;1.80;;
14945;SDS011;7567;50.916;6.900;2022-10-16T00:47:52;1.90;;;1.73;;
14945;SDS011;7567;50.916;6.900;2022-10-16T00:52:52;3.78;;;1.70;;
14945;SDS011;7567;50.916;6.900;2022-10-16T00:55:19;2.17;;;1.67;;
14945;SDS011;7567;50.916;6.900;2022-10-16T00:57:45;4.80;;;1.80;;
14945;SDS011;7567;50.916;6.900;2022-10-16T01:00:14;4.20;;;1.70;;
14945;SDS011;7567;50.916;6.900;2022-10-16T01:02:43;2.08;;;1.75;;
14945;SDS011;7567;50.916;6.900;2022-10-16T01:05:09;3.08;;;2.15;;
14945;SDS011;7567;50.916;6.900;2022-10-16T01:07:45;5.35;;;1.63;;
14945;SDS011;7567;50.916;6.900;2022-10-16T01:13:21;3.65;;;2.05;;
14945;SDS011;7567;50.916;6.900;2022-10-16T01:15:54;2.10;;;1.90;;
14945;SDS011;7567;50.916;6.900;2022-10-16T01:18:39;2.20;;;1.67;;
14945;SDS011;7567;50.916;6.900;2022-10-16T01:21:11;2.25;;;1.67;;
14945;SDS011;7567;50.916;6.900;2022-10-16T01:35:05;2.10;;;1.52;;
14945;SDS011;7567;50.916;6.900;2022-10-16T01:40:37;2.30;;;1.58;;
14945;SDS011;7567;50.916;6.900;2022-10-16T01:43:08;2.17;;;1.60;;
14945;SDS011;7567;50.916;6.900;2022-10-16T01:45:37;2.38;;;1.55;;
14945;SDS011;7567;50.916;6.900;2022-10-16T01:48:04;2.47;;;1.50;;
14945;SDS011;7567;50.916;6.900;2022-10-16T01:50:33;2.20;;;1.70;;
14945;SDS011;7567;50.916;6.900;2022-10-16T01:53:05;7.53;;;1.40;;
14945;SDS011;7567;50.916;6.900;2022-10-16T01:55:35;2.85;;;1.80;;
14945;SDS011;7567;50.916;6.900;2022-10-16T01:58:04;3.33;;;1.58;;
14945;SDS011;7567;50.916;6.900;2022-10-16T02:00:34;1.40;;;1.30;;
14945;SDS011;7567;50.916;6.900;2022-10-16T02:03:03;3.38;;;1.65;;
14945;SDS011;7567;50.916;6.900;2022-10-16T02:05:32;3.03;;;1.50;;
14945;SDS011;7567;50.916;6.900;2022-10-16T02:08:03;4.57;;;1.60;;
14945;SDS011;7567;50.916;6.900;2022-10-16T02:10:30;1.60;;;1.50;;
14945;SDS011;7567;50.916;6.900;2022-10-16T02:12:57;2.97;;;1.60;;
14945;SDS011;7567;50.916;6.900;2022-10-16T02:15:27;3.47;;;1.42;;
14945;SDS011;7567;50.916;6.900;2022-10-16T02:17:53;1.83;;;1.60;;
14945;SDS011;7567;50.916;6.900;2022-10-16T02:20:20;2.65;;;1.52;;
14945;SDS011;7567;50.916;6.900;2022-10-16T02:22:51;4.65;;;1.90;;
14945;SDS011;7567;50.916;6.900;2022-10-16T02:25:19;2.15;;;1.50;;
14945;SDS011;7567;50.916;6.900;2022-10-16T02:32:51;2.55;;;1.95;;
14945;SDS011;7567;50.916;6.900;2022-10-16T02:35:19;2.30;;;1.98;;
14945;SDS011;7567;50.916;6.900;2022-10-16T02:37:47;5.10;;;1.88;;
14945;SDS011;7567;50.916;6.900;2022-10-16T02:40:15;2.33;;;1.70;;
14945;SDS011;7567;50.916;6.900;2022-10-16T02:42:43;2.60;;;2.25;;
14945;SDS011;7567;50.916;6.900;2022-10-16T02:45:09;2.55;;;2.35;;
14945;SDS011;7567;50.916;6.900;2022-10-16T02:47:36;2.83;;;2.10;;
14945;SDS011;7567;50.916;6.900;2022-10-16T02:50:02;8.20;;;2.28;;
14945;SDS011;7567;50.916;6.900;2022-10-16T02:52:29;4.07;;;2.53;;
14945;SDS011;7567;50.916;6.900;2022-10-16T02:54:54;2.25;;;1.90;;
14945;SDS011;7567;50.916;6.900;2022-10-16T02:57:20;2.35;;;2.03;;
14945;SDS011;7567;50.916;6.900;2022-10-16T02:59:46;2.00;;;1.80;;
14945;SDS011;7567;50.916;6.900;2022-10-16T03:02:12;2.65;;;1.98;;
14945;SDS011;7567;50.916;6.900;2022-10-16T03:04:38;2.72;;;1.88;;
14945;SDS011;7567;50.916;6.900;2022-10-16T03:07:04;1.70;;;1.60;;
14945;SDS011;7567;50.916;6.900;2022-10-16T03:09:30;2.97;;;1.73;;
14945;SDS011;7567;50.916;6.900;2022-10-16T03:11:56;1.95;;;1.70;;
14945;SDS011;7567;50.916;6.900;2022-10-16T03:14:22;1.60;;;1.50;;
14945;SDS011;7567;50.916;6.900;2022-10-16T03:16:47;3.58;;;2.03;;
14945;SDS011;7567;50.916;6.900;2022-10-16T03:19:13;1.80;;;1.70;;
14945;SDS011;7567;50.916;6.900;2022-10-16T03:21:42;1.98;;;1.77;;
14945;SDS011;7567;50.916;6.900;2022-10-16T03:24:07;5.22;;;2.00;;
14945;SDS011;7567;50.916;6.900;2022-10-16T03:26:33;1.70;;;1.60;;
14945;SDS011;7567;50.916;6.900;2022-10-16T03:28:59;1.65;;;1.52;;
14945;SDS011;7567;50.916;6.900;2022-10-16T03:31:25;2.45;;;1.95;;
14945;SDS011;7567;50.916;6.900;2022-10-16T03:33:51;2.30;;;1.75;;
14945;SDS011;7567;50.916;6.900;2022-10-16T03:36:17;5.35;;;1.50;;
14945;SDS011;7567;50.916;6.900;2022-10-16T03:38:43;1.90;;;1.70;;
14945;SDS011;7567;50.916;6.900;2022-10-16T03:41:09;2.08;;;1.60;;
14945;SDS011;7567;50.916;6.900;2022-10-16T03:43:34;2.22;;;1.70;;
14945;SDS011;7567;50.916;6.900;2022-10-16T03:46:01;2.13;;;1.58;;
14945;SDS011;7567;50.916;6.900;2022-10-16T03:48:26;2.22;;;1.60;;
14945;SDS011;7567;50.916;6.900;2022-10-16T03:50:52;2.67;;;1.80;;
14945;SDS011;7567;50.916;6.900;2022-10-16T03:53:20;1.63;;;1.52;;
14945;SDS011;7567;50.916;6.900;2022-10-16T03:55:46;2.17;;;1.80;;
14945;SDS011;7567;50.916;6.900;2022-10-16T03:58:12;1.52;;;1.42;;
14945;SDS011;7567;50.916;6.900;2022-10-16T04:00:41;1.60;;;1.50;;
14945;SDS011;7567;50.916;6.900;2022-10-16T04:03:08;4.15;;;1.67;;
14945;SDS011;7567;50.916;6.900;2022-10-16T04:05:34;2.10;;;1.50;;
14945;SDS011;7567;50.916;6.900;2022-10-16T04:08:00;3.05;;;1.40;;
14945;SDS011;7567;50.916;6.900;2022-10-16T04:10:26;1.65;;;1.55;;
14945;SDS011;7567;50.916;6.900;2022-10-16T04:12:51;3.65;;;1.80;;
14945;SDS011;7567;50.916;6.900;2022-10-16T04:15:19;7.03;;;1.60;;
14945;SDS011;7567;50.916;6.900;2022-10-16T04:17:45;1.90;;;1.33;;
14945;SDS011;7567;50.916;6.900;2022-10-16T04:20:12;1.83;;;1.60;;
14945;SDS011;7567;50.916;6.900;2022-10-16T04:22:37;1.50;;;1.40;;
14945;SDS011;7567;50.916;6.900;2022-10-16T04:25:04;2.28;;;1.48;;
14945;SDS011;7567;50.916;6.900;2022-10-16T04:27:30;1.30;;;1.20;;
14945;SDS011;7567;50.916;6.900;2022-10-16T04:29:57;1.52;;;1.20;;
14945;SDS011;7567;50.916;6.900;2022-10-16T04:32:24;4.00;;;1.30;;
14945;SDS011;7567;50.916;6.900;2022-10-16T04:34:51;1.63;;;1.52;;
14945;SDS011;7567;50.916;6.900;2022-10-16T04:37:17;2.75;;;1.23;;
14945;SDS011;7567;50.916;6.900;2022-10-16T04:39:42;1.92;;;1.38;;
14945;SDS011;7567;50.916;6.900;2022-10-16T04:42:10;2.90;;;1.45;;
14945;SDS011;7567;50.916;6.900;2022-10-16T04:44:36;3.80;;;1.27;;
14945;SDS011;7567;50.916;6.900;2022-10-16T04:47:02;1.40;;;1.30;;
14945;SDS011;7567;50.916;6.900;2022-10-16T04:49:27;1.40;;;1.30;;
14945;SDS011;7567;50.916;6.900;2022-10-16T04:51:53;3.03;;;1.27;;
14945;SDS011;7567;50.916;6.900;2022-10-16T04:54:19;2.35;;;1.30;;
14945;SDS011;7567;50.916;6.900;2022-10-16T04:56:45;1.35;;;1.30;;
14945;SDS011;7567;50.916;6.900;2022-10-16T04:59:16;1.65;;;1.10;;
14945;SDS011;7567;50.916;6.900;2022-10-16T05:01:42;3.40;;;1.40;;
14945;SDS011;7567;50.916;6.900;2022-10-16T05:04:08;2.08;;;1.33;;
14945;SDS011;7567;50.916;6.900;2022-10-16T05:06:35;2.55;;;1.55;;
14945;SDS011;7567;50.916;6.900;2022-10-16T05:09:02;3.30;;;1.40;;
14945;SDS011;7567;50.916;6.900;2022-10-16T05:11:28;2.40;;;1.25;;
14945;SDS011;7567;50.916;6.900;2022-10-16T05:13:54;2.85;;;1.75;;
14945;SDS011;7567;50.916;6.900;2022-10-16T05:16:20;1.40;;;1.30;;
14945;SDS011;7567;50.916;6.900;2022-10-16T05:18:45;2.58;;;1.52;;
14945;SDS011;7567;50.916;6.900;2022-10-16T05:21:11;1.60;;;1.17;;
14945;SDS011;7567;50.916;6.900;2022-10-16T05:23:37;1.50;;;1.40;;
14945;SDS011;7567;50.916;6.900;2022-10-16T05:26:03;1.40;;;1.30;;
14945;SDS011;7567;50.916;6.900;2022-10-16T05:28:29;1.55;;;1.33;;
14945;SDS011;7567;50.916;6.900;2022-10-16T05:30:56;3.28;;;1.30;;
14945;SDS011;7567;50.916;6.900;2022-10-16T05:33:24;1.75;;;1.15;;
14945;SDS011;7567;50.916;6.900;2022-10-16T05:35:50;2.00;;;1.35;;
14945;SDS011;7567;50.916;6.900;2022-10-16T05:38:17;2.97;;;1.55;;
14945;SDS011;7567;50.916;6.900;2022-10-16T05:40:43;1.00;;;1.00;;
14945;SDS011;7567;50.916;6.900;2022-10-16T05:43:17;5.35;;;1.30;;
14945;SDS011;7567;50.916;6.900;2022-10-16T05:45:43;3.80;;;1.33;;
14945;SDS011;7567;50.916;6.900;2022-10-16T05:48:09;2.85;;;1.20;;
14945;SDS011;7567;50.916;6.900;2022-10-16T05:50:35;2.05;;;1.20;;
14945;SDS011;7567;50.916;6.900;2022-10-16T05:53:01;1.65;;;1.23;;
14945;SDS011;7567;50.916;6.900;2022-10-16T05:55:27;2.28;;;1.30;;
14945;SDS011;7567;50.916;6.900;2022-10-16T05:57:55;2.85;;;1.20;;
14945;SDS011;7567;50.916;6.900;2022-10-16T06:00:21;2.30;;;1.30;;
14945;SDS011;7567;50.916;6.900;2022-10-16T06:02:47;1.13;;;1.10;;
14945;SDS011;7567;50.916;6.900;2022-10-16T06:05:13;4.47;;;1.30;;
14945;SDS011;7567;50.916;6.900;2022-10-16T06:07:39;3.38;;;1.50;;
14945;SDS011;7567;50.916;6.900;2022-10-16T06:10:05;1.73;;;1.30;;
14945;SDS011;7567;50.916;6.900;2022-10-16T06:12:31;1.55;;;1.40;;
14945;SDS011;7567;50.916;6.900;2022-10-16T06:14:57;2.20;;;1.17;;
14945;SDS011;7567;50.916;6.900;2022-10-16T06:17:23;1.30;;;1.13;;
14945;SDS011;7567;50.916;6.900;2022-10-16T06:19:49;1.33;;;1.25;;
14945;SDS011;7567;50.916;6.900;2022-10-16T06:22:15;2.88;;;1.35;;
14945;SDS011;7567;50.916;6.900;2022-10-16T06:24:41;2.30;;;1.33;;
14945;SDS011;7567;50.916;6.900;2022-10-16T06:27:07;1.95;;;1.48;;
14945;SDS011;7567;50.916;6.900;2022-10-16T06:29:32;3.08;;;1.48;;
14945;SDS011;7567;50.916;6.900;2022-10-16T06:31:58;2.47;;;1.40;;
14945;SDS011;7567;50.916;6.900;2022-10-16T06:34:24;6.15;;;1.70;;
14945;SDS011;7567;50.916;6.900;2022-10-16T06:36:50;2.03;;;1.75;;
14945;SDS011;7567;50.916;6.900;2022-10-16T06:39:16;1.95;;;1.70;;
14945;SDS011;7567;50.916;6.900;2022-10-16T06:41:42;1.63;;;1.50;;
14945;SDS011;7567;50.916;6.900;2022-10-16T06:44:08;2.35;;;1.45;;
14945;SDS011;7567;50.916;6.900;2022-10-16T06:46:34;1.77;;;1.48;;
14945;SDS011;7567;50.916;6.900;2022-10-16T06:49:00;1.70;;;1.60;;
14945;SDS011;7567;50.916;6.900;2022-10-16T06:51:26;2.95;;;1.65;;
14945;SDS011;7567;50.916;6.900;2022-10-16T06:53:54;2.78;;;1.92;;
14945;SDS011;7567;50.916;6.900;2022-10-16T06:56:23;2.90;;;2.00;;
14945;SDS011;7567;50.916;6.900;2022-10-16T06:58:50;3.58;;;1.85;;
14945;SDS011;7567;50.916;6.900;2022-10-16T07:01:19;2.03;;;1.73;;
14945;SDS011;7567;50.916;6.900;2022-10-16T07:03:46;7.72;;;1.85;;
14945;SDS011;7567;50.916;6.900;2022-10-16T07:06:13;3.13;;;1.63;;
14945;SDS011;7567;50.916;6.900;2022-10-16T07:08:42;1.63;;;1.50;;
14945;SDS011;7567;50.916;6.900;2022-10-16T07:11:10;1.85;;;1.60;;
14945;SDS011;7567;50.916;6.900;2022-10-16T07:13:38;1.88;;;1.77;;
14945;SDS011;7567;50.916;6.900;2022-10-16T07:16:06;3.05;;;1.50;;
14945;SDS011;7567;50.916;6.900;2022-10-16T07:18:33;4.47;;;1.60;;
14945;SDS011;7567;50.916;6.900;2022-10-16T07:21:03;1.50;;;1.40;;
14945;SDS011;7567;50.916;6.900;2022-10-16T07:23:33;5.97;;;1.67;;
14945;SDS011;7567;50.916;6.900;2022-10-16T07:25:59;2.05;;;1.48;;
14945;SDS011;7567;50.916;6.900;2022-10-16T07:28:25;2.33;;;1.50;;
14945;SDS011;7567;50.916;6.900;2022-10-16T07:30:51;3.13;;;1.52;;
14945;SDS011;7567;50.916;6.900;2022-10-16T07:33:17;1.80;;;1.70;;
14945;SDS011;7567;50.916;6.900;2022-10-16T07:35:52;1.90;;;1.40;;
14945;SDS011;7567;50.916;6.900;2022-10-16T07:38:19;1.60;;;1.50;;
14945;SDS011;7567;50.916;6.900;2022-10-16T07:40:46;2.22;;;1.75;;
14945;SDS011;7567;50.916;6.900;2022-10-16T07:43:12;1.55;;;1.45;;
14945;SDS011;7567;50.916;6.900;2022-10-16T07:45:46;2.97;;;1.60;;
14945;SDS011;7567;50.916;6.900;2022-10-16T07:48:14;1.48;;;1.38;;
14945;SDS011;7567;50.916;6.900;2022-10-16T07:50:41;3.78;;;1.52;;
14945;SDS011;7567;50.916;6.900;2022-10-16T07:53:07;2.17;;;1.40;;
14945;SDS011;7567;50.916;6.900;2022-10-16T07:55:33;2.17;;;1.40;;
14945;SDS011;7567;50.916;6.900;2022-10-16T07:57:59;6.65;;;1.55;;
14945;SDS011;7567;50.916;6.900;2022-10-16T08:00:25;2.75;;;1.52;;
14945;SDS011;7567;50.916;6.900;2022-10-16T08:02:50;1.50;;;1.33;;
14945;SDS011;7567;50.916;6.900;2022-10-16T08:05:16;5.35;;;1.73;;
14945;SDS011;7567;50.916;6.900;2022-10-16T08:07:42;2.20;;;1.65;;
14945;SDS011;7567;50.916;6.900;2022-10-16T08:10:17;2.58;;;1.80;;
14945;SDS011;7567;50.916;6.900;2022-10-16T08:12:44;3.00;;;1.70;;
14945;SDS011;7567;50.916;6.900;2022-10-16T08:15:10;4.03;;;1.55;;
14945;SDS011;7567;50.916;6.900;2022-10-16T08:17:37;2.28;;;1.65;;
14945;SDS011;7567;50.916;6.900;2022-10-16T08:20:03;4.30;;;1.75;;
14945;SDS011;7567;50.916;6.900;2022-10-16T08:22:29;4.05;;;1.58;;
14945;SDS011;7567;50.916;6.900;2022-10-16T08:24:56;2.17;;;1.50;;
14945;SDS011;7567;50.916;6.900;2022-10-16T08:27:22;2.30;;;1.67;;
14945;SDS011;7567;50.916;6.900;2022-10-16T08:29:50;2.45;;;1.40;;
14945;SDS011;7567;50.916;6.900;2022-10-16T08:32:16;4.38;;;1.52;;
14945;SDS011;7567;50.916;6.900;2022-10-16T08:34:42;1.73;;;1.13;;
14945;SDS011;7567;50.916;6.900;2022-10-16T08:37:08;3.03;;;1.50;;
14945;SDS011;7567;50.916;6.900;2022-10-16T08:39:36;3.47;;;1.35;;
14945;SDS011;7567;50.916;6.900;2022-10-16T08:45:00;4.25;;;1.20;;
14945;SDS011;7567;50.916;6.900;2022-10-16T08:50:35;2.08;;;1.33;;
14945;SDS011;7567;50.916;6.900;2022-10-16T08:53:04;3.83;;;1.20;;
14945;SDS011;7567;50.916;6.900;2022-10-16T08:55:48;4.05;;;1.20;;
14945;SDS011;7567;50.916;6.900;2022-10-16T08:58:17;2.40;;;1.00;;
14945;SDS011;7567;50.916;6.900;2022-10-16T09:00:50;2.35;;;0.90;;
14945;SDS011;7567;50.916;6.900;2022-10-16T09:06:25;2.17;;;0.88;;
14945;SDS011;7567;50.916;6.900;2022-10-16T09:17:24;3.25;;;0.80;;
14945;SDS011;7567;50.916;6.900;2022-10-16T09:20:23;2.85;;;0.90;;
14945;SDS011;7567;50.916;6.900;2022-10-16T09:23:13;1.42;;;0.88;;
14945;SDS011;7567;50.916;6.900;2022-10-16T09:25:43;1.60;;;0.73;;
14945;SDS011;7567;50.916;6.900;2022-10-16T09:28:16;2.63;;;0.80;;
14945;SDS011;7567;50.916;6.900;2022-10-16T09:30:43;1.65;;;0.52;;
14945;SDS011;7567;50.916;6.900;2022-10-16T09:33:10;1.33;;;0.70;;
14945;SDS011;7567;50.916;6.900;2022-10-16T09:35:40;3.08;;;0.77;;
14945;SDS011;7567;50.916;6.900;2022-10-16T09:38:08;3.20;;;0.93;;
14945;SDS011;7567;50.916;6.900;2022-10-16T09:40:45;1.92;;;0.70;;
14945;SDS011;7567;50.916;6.900;2022-10-16T09:45:57;2.92;;;0.70;;
14945;SDS011;7567;50.916;6.900;2022-10-16T09:48:26;1.48;;;0.80;;
14945;SDS011;7567;50.916;6.900;2022-10-16T09:51:00;3.17;;;0.90;;
14945;SDS011;7567;50.916;6.900;2022-10-16T09:53:48;1.55;;;0.85;;
14945;SDS011;7567;50.916;6.900;2022-10-16T09:56:26;2.83;;;0.85;;
14945;SDS011;7567;50.916;6.900;2022-10-16T09:58:58;4.55;;;0.85;;
14945;SDS011;7567;50.916;6.900;2022-10-16T10:01:36;1.55;;;0.60;;
14945;SDS011;7567;50.916;6.900;2022-10-16T10:04:05;2.85;;;0.60;;
14945;SDS011;7567;50.916;6.900;2022-10-16T10:06:33;1.80;;;0.73;;
14945;SDS011;7567;50.916;6.900;2022-10-16T10:09:22;1.38;;;0.70;;
14945;SDS011;7567;50.916;6.900;2022-10-16T10:11:57;1.15;;;0.70;;
14945;SDS011;7567;50.916;6.900;2022-10-16T10:17:10;4.45;;;0.75;;
14945;SDS011;7567;50.916;6.900;2022-10-16T10:22:27;1.85;;;0.65;;
14945;SDS011;7567;50.916;6.900;2022-10-16T10:27:38;2.67;;;0.80;;
14945;SDS011;7567;50.916;6.900;2022-10-16T10:38:50;1.92;;;0.73;;
14945;SDS011;7567;50.916;6.900;2022-10-16T10:47:06;1.33;;;0.82;;
14945;SDS011;7567;50.916;6.900;2022-10-16T10:50:02;5.50;;;0.95;;
14945;SDS011;7567;50.916;6.900;2022-10-16T10:55:33;3.28;;;0.73;;
14945;SDS011;7567;50.916;6.900;2022-10-16T11:01:09;2.97;;;0.80;;
14945;SDS011;7567;50.916;6.900;2022-10-16T11:03:46;2.10;;;0.70;;
14945;SDS011;7567;50.916;6.900;2022-10-16T11:06:24;1.15;;;0.50;;
14945;SDS011;7567;50.916;6.900;2022-10-16T11:09:00;0.88;;;0.60;;
14945;SDS011;7567;50.916;6.900;2022-10-16T11:11:45;3.72;;;1.02;;
14945;SDS011;7567;50.916;6.900;2022-10-16T11:14:20;1.40;;;0.70;;
14945;SDS011;7567;50.916;6.900;2022-10-16T11:16:52;1.55;;;0.63;;
14945;SDS011;7567;50.916;6.900;2022-10-16T11:19:41;2.70;;;0.57;;
14945;SDS011;7567;50.916;6.900;2022-10-16T11:30:41;4.60;;;0.80;;
14945;SDS011;7567;50.916;6.900;2022-10-16T11:35:46;0.95;;;0.60;;
14945;SDS011;7567;50.916;6.900;2022-10-16T11:38:38;2.97;;;0.82;;
14945;SDS011;7567;50.916;6.900;2022-10-16T11:41:24;1.35;;;0.52;;
14945;SDS011;7567;50.916;6.900;2022-10-16T11:46:40;2.08;;;0.85;;
14945;SDS011;7567;50.916;6.900;2022-10-16T11:49:17;1.25;;;0.70;;
14945;SDS011;7567;50.916;6.900;2022-10-16T11:55:09;3.22;;;0.70;;
14945;SDS011;7567;50.916;6.900;2022-10-16T11:58:01;0.73;;;0.60;;
14945;SDS011;7567;50.916;6.900;2022-10-16T12:00:23;1.15;;;0.50;;
14945;SDS011;7567;50.916;6.900;2022-10-16T12:03:00;2.85;;;0.63;;
14945;SDS011;7567;50.916;6.900;2022-10-16T12:05:58;3.50;;;0.80;;
14945;SDS011;7567;50.916;6.900;2022-10-16T12:08:26;1.88;;;1.13;;
14945;SDS011;7567;50.916;6.900;2022-10-16T12:10:52;0.88;;;0.45;;
14945;SDS011;7567;50.916;6.900;2022-10-16T12:13:34;1.58;;;0.70;;
14945;SDS011;7567;50.916;6.900;2022-10-16T12:18:37;1.85;;;0.90;;
14945;SDS011;7567;50.916;6.900;2022-10-16T12:21:11;4.68;;;0.55;;
14945;SDS011;7567;50.916;6.900;2022-10-16T12:23:47;1.00;;;0.57;;
14945;SDS011;7567;50.916;6.900;2022-10-16T12:26:28;0.82;;;0.70;;
14945;SDS011;7567;50.916;6.900;2022-10-16T12:31:44;1.27;;;0.80;;
14945;SDS011;7567;50.916;6.900;2022-10-16T12:34:20;1.83;;;0.80;;
14945;SDS011;7567;50.916;6.900;2022-10-16T12:39:38;4.07;;;0.93;;
14945;SDS011;7567;50.916;6.900;2022-10-16T12:42:05;2.35;;;0.70;;
14945;SDS011;7567;50.916;6.900;2022-10-16T12:44:45;3.08;;;0.73;;
14945;SDS011;7567;50.916;6.900;2022-10-16T12:47:19;2.20;;;0.68;;
14945;SDS011;7567;50.916;6.900;2022-10-16T12:49:58;1.00;;;0.70;;
14945;SDS011;7567;50.916;6.900;2022-10-16T12:54:59;1.05;;;0.50;;
14945;SDS011;7567;50.916;6.900;2022-10-16T12:57:47;1.10;;;0.60;;
14945;SDS011;7567;50.916;6.900;2022-10-16T13:00:31;1.02;;;0.80;;
14945;SDS011;7567;50.916;6.900;2022-10-16T13:17:11;2.33;;;0.60;;
14945;SDS011;7567;50.916;6.900;2022-10-16T13:19:58;1.25;;;0.65;;
14945;SDS011;7567;50.916;6.900;2022-10-16T13:30:20;2.05;;;0.70;;
14945;SDS011;7567;50.916;6.900;2022-10-16T13:33:15;0.60;;;0.50;;
14945;SDS011;7567;50.916;6.900;2022-10-16T13:35:54;0.85;;;0.60;;
14945;SDS011;7567;50.916;6.900;2022-10-16T13:38:21;0.50;;;0.50;;
14945;SDS011;7567;50.916;6.900;2022-10-16T13:43:35;1.55;;;0.60;;
14945;SDS011;7567;50.916;6.900;2022-10-16T13:46:10;1.10;;;0.65;;
14945;SDS011;7567;50.916;6.900;2022-10-16T13:48:38;2.50;;;0.70;;
14945;SDS011;7567;50.916;6.900;2022-10-16T13:51:06;1.67;;;0.77;;
14945;SDS011;7567;50.916;6.900;2022-10-16T13:53:36;1.38;;;0.60;;
14945;SDS011;7567;50.916;6.900;2022-10-16T13:56:04;4.95;;;1.00;;
14945;SDS011;7567;50.916;6.900;2022-10-16T13:58:32;2.15;;;0.60;;
14945;SDS011;7567;50.916;6.900;2022-10-16T14:00:58;1.63;;;0.77;;
14945;SDS011;7567;50.916;6.900;2022-10-16T14:03:33;1.05;;;0.82;;
14945;SDS011;7567;50.916;6.900;2022-10-16T14:06:01;1.60;;;1.00;;
14945;SDS011;7567;50.916;6.900;2022-10-16T14:08:29;1.55;;;0.80;;
14945;SDS011;7567;50.916;6.900;2022-10-16T14:10:57;1.08;;;0.50;;
14945;SDS011;7567;50.916;6.900;2022-10-16T14:13:30;2.10;;;0.70;;
14945;SDS011;7567;50.916;6.900;2022-10-16T14:16:09;1.02;;;0.70;;
14945;SDS011;7567;50.916;6.900;2022-10-16T14:18:41;3.60;;;0.70;;
14945;SDS011;7567;50.916;6.900;2022-10-16T14:21:15;4.53;;;1.00;;
14945;SDS011;7567;50.916;6.900;2022-10-16T14:23:42;0.90;;;0.68;;
14945;SDS011;7567;50.916;6.900;2022-10-16T14:28:34;0.95;;;0.70;;
14945;SDS011;7567;50.916;6.900;2022-10-16T14:31:13;2.10;;;0.60;;
14945;SDS011;7567;50.916;6.900;2022-10-16T14:33:58;3.22;;;1.20;;
14945;SDS011;7567;50.916;6.900;2022-10-16T14:36:26;1.50;;;0.73;;
14945;SDS011;7567;50.916;6.900;2022-10-16T14:39:06;2.25;;;0.70;;
14945;SDS011;7567;50.916;6.900;2022-10-16T14:41:45;1.15;;;0.60;;
14945;SDS011;7567;50.916;6.900;2022-10-16T14:44:13;3.03;;;0.98;;
14945;SDS011;7567;50.916;6.900;2022-10-16T14:46:40;1.42;;;0.70;;
14945;SDS011;7567;50.916;6.900;2022-10-16T14:51:37;1.83;;;0.70;;
14945;SDS011;7567;50.916;6.900;2022-10-16T14:54:07;1.15;;;0.93;;
14945;SDS011;7567;50.916;6.900;2022-10-16T14:59:38;2.78;;;0.70;;
14945;SDS011;7567;50.916;6.900;2022-10-16T15:05:13;1.65;;;0.60;;
14945;SDS011;7567;50.916;6.900;2022-10-16T15:07:47;2.47;;;0.65;;
14945;SDS011;7567;50.916;6.900;2022-10-16T15:10:14;0.73;;;0.57;;
14945;SDS011;7567;50.916;6.900;2022-10-16T15:12:44;2.13;;;0.70;;
14945;SDS011;7567;50.916;6.900;2022-10-16T15:15:55;0.40;;;0.40;;
14945;SDS011;7567;50.916;6.900;2022-10-16T15:17:59;1.40;;;0.60;;
14945;SDS011;7567;50.916;6.900;2022-10-16T15:20:27;0.70;;;0.50;;
14945;SDS011;7567;50.916;6.900;2022-10-16T15:22:55;1.00;;;0.50;;
14945;SDS011;7567;50.916;6.900;2022-10-16T15:25:38;1.45;;;0.60;;
14945;SDS011;7567;50.916;6.900;2022-10-16T15:28:07;1.25;;;0.75;;
14945;SDS011;7567;50.916;6.900;2022-10-16T15:30:35;1.02;;;0.75;;
14945;SDS011;7567;50.916;6.900;2022-10-16T15:33:02;1.13;;;0.50;;
14945;SDS011;7567;50.916;6.900;2022-10-16T15:35:29;1.08;;;0.73;;
14945;SDS011;7567;50.916;6.900;2022-10-16T15:37:55;1.65;;;0.55;;
14945;SDS011;7567;50.916;6.900;2022-10-16T15:40:21;2.22;;;0.60;;
14945;SDS011;7567;50.916;6.900;2022-10-16T15:42:48;0.98;;;0.70;;
14945;SDS011;7567;50.916;6.900;2022-10-16T15:45:17;0.75;;;0.57;;
14945;SDS011;7567;50.916;6.900;2022-10-16T15:47:44;0.63;;;0.60;;
14945;SDS011;7567;50.916;6.900;2022-10-16T15:50:11;1.23;;;0.70;;
14945;SDS011;7567;50.916;6.900;2022-10-16T15:52:38;1.92;;;1.00;;
14945;SDS011;7567;50.916;6.900;2022-10-16T15:55:08;2.25;;;1.48;;
14945;SDS011;7567;50.916;6.900;2022-10-16T15:57:35;1.35;;;0.93;;
14945;SDS011;7567;50.916;6.900;2022-10-16T16:00:05;1.55;;;1.08;;
14945;SDS011;7567;50.916;6.900;2022-10-16T16:02:36;2.47;;;1.30;;
14945;SDS011;7567;50.916;6.900;2022-10-16T16:05:02;1.10;;;1.00;;
14945;SDS011;7567;50.916;6.900;2022-10-16T16:07:32;3.53;;;1.10;;
14945;SDS011;7567;50.916;6.900;2022-10-16T16:09:59;1.40;;;1.10;;
14945;SDS011;7567;50.916;6.900;2022-10-16T16:12:25;1.80;;;0.88;;
14945;SDS011;7567;50.916;6.900;2022-10-16T16:14:51;1.77;;;1.00;;
14945;SDS011;7567;50.916;6.900;2022-10-16T16:17:17;1.08;;;0.98;;
14945;SDS011;7567;50.916;6.900;2022-10-16T16:19:43;1.88;;;0.77;;
14945;SDS011;7567;50.916;6.900;2022-10-16T16:22:10;0.73;;;0.73;;
14945;SDS011;7567;50.916;6.900;2022-10-16T16:24:36;1.00;;;0.90;;
14945;SDS011;7567;50.916;6.900;2022-10-16T16:27:02;1.00;;;0.68;;
14945;SDS011;7567;50.916;6.900;2022-10-16T16:29:28;2.03;;;0.70;;
14945;SDS011;7567;50.916;6.900;2022-10-16T16:31:54;1.23;;;0.82;;
14945;SDS011;7567;50.916;6.900;2022-10-16T16:34:23;1.02;;;0.77;;
14945;SDS011;7567;50.916;6.900;2022-10-16T16:36:50;0.80;;;0.80;;
14945;SDS011;7567;50.916;6.900;2022-10-16T16:39:16;0.75;;;0.65;;
14945;SDS011;7567;50.916;6.900;2022-10-16T16:41:42;0.75;;;0.70;;
14945;SDS011;7567;50.916;6.900;2022-10-16T16:44:10;0.70;;;0.65;;
14945;SDS011;7567;50.916;6.900;2022-10-16T16:46:37;1.90;;;1.08;;
14945;SDS011;7567;50.916;6.900;2022-10-16T16:49:05;2.85;;;0.80;;
14945;SDS011;7567;50.916;6.900;2022-10-16T16:51:32;4.13;;;0.80;;
14945;SDS011;7567;50.916;6.900;2022-10-16T16:53:58;1.85;;;0.80;;
14945;SDS011;7567;50.916;6.900;2022-10-16T16:56:24;0.60;;;0.60;;
14945;SDS011;7567;50.916;6.900;2022-10-16T16:58:52;2.38;;;0.63;;
14945;SDS011;7567;50.916;6.900;2022-10-16T17:01:20;2.00;;;0.82;;
14945;SDS011;7567;50.916;6.900;2022-10-16T17:03:47;0.75;;;0.75;;
14945;SDS011;7567;50.916;6.900;2022-10-16T17:06:15;2.15;;;0.70;;
14945;SDS011;7567;50.916;6.900;2022-10-16T17:08:41;1.00;;;0.60;;
14945;SDS011;7567;50.916;6.900;2022-10-16T17:11:18;1.80;;;0.70;;
14945;SDS011;7567;50.916;6.900;2022-10-16T17:13:45;0.95;;;0.68;;
14945;SDS011;7567;50.916;6.900;2022-10-16T17:16:11;0.85;;;0.65;;
14945;SDS011;7567;50.916;6.900;2022-10-16T17:18:37;0.68;;;0.50;;
14945;SDS011;7567;50.916;6.900;2022-10-16T17:21:05;0.93;;;0.80;;
14945;SDS011;7567;50.916;6.900;2022-10-16T17:23:32;0.98;;;0.60;;
14945;SDS011;7567;50.916;6.900;2022-10-16T17:26:06;0.70;;;0.70;;
14945;SDS011;7567;50.916;6.900;2022-10-16T17:28:35;4.53;;;0.73;;
14945;SDS011;7567;50.916;6.900;2022-10-16T17:31:07;0.80;;;0.80;;